createdAt,value
2024-05-09T00:00:48.919Z,81.80
2024-05-09T00:03:38.174Z,81.53
2024-05-09T00:06:10.198Z,81.71
2024-05-09T00:08:39.579Z,81.47
2024-05-09T00:11:08.843Z,81.42
2024-05-09T00:13:38.130Z,81.77
2024-05-09T00:16:07.309Z,81.18
2024-05-09T00:18:35.396Z,81.73
2024-05-09T00:21:09.766Z,82.21
2024-05-09T00:23:39.088Z,82.39
2024-05-09T00:26:08.787Z,82.21
2024-05-09T00:28:37.209Z,82.58
2024-05-09T00:31:05.250Z,82.33
2024-05-09T00:33:34.912Z,82.22
2024-05-09T00:36:03.493Z,82.24
2024-05-09T00:38:31.843Z,82.37
2024-05-09T00:41:01.114Z,82.46
2024-05-09T00:43:32.752Z,82.97
2024-05-09T00:46:02.125Z,82.53
2024-05-09T00:48:31.911Z,82.41
2024-05-09T00:51:02.157Z,82.34
2024-05-09T00:53:30.973Z,82.20
2024-05-09T00:56:01.823Z,81.98
2024-05-09T00:58:32.617Z,81.94
2024-05-09T01:01:03.341Z,81.94
2024-05-09T01:03:32.001Z,81.33
2024-05-09T01:06:02.679Z,81.41
2024-05-09T01:08:31.448Z,81.53
2024-05-09T01:11:01.801Z,81.48
2024-05-09T01:13:30.475Z,81.23
2024-05-09T01:15:59.657Z,81.25
2024-05-09T01:18:30.886Z,80.77
2024-05-09T01:20:59.555Z,80.85
2024-05-09T01:23:28.991Z,80.31
2024-05-09T01:25:58.541Z,81.06
2024-05-09T01:28:28.018Z,80.79
2024-05-09T01:30:57.151Z,80.60
2024-05-09T01:33:26.177Z,80.77
2024-05-09T01:35:55.025Z,80.11
2024-05-09T01:38:23.257Z,80.70
2024-05-09T01:40:51.389Z,80.40
2024-05-09T01:43:19.725Z,80.43
2024-05-09T01:45:48.150Z,80.18
2024-05-09T01:48:16.521Z,80.41
2024-05-09T01:50:45.095Z,80.02
2024-05-09T01:53:15.216Z,80.11
2024-05-09T01:55:44.586Z,79.95
2024-05-09T01:58:13.367Z,79.82
2024-05-09T02:00:43.026Z,79.80
2024-05-09T02:03:15.954Z,79.70
2024-05-09T02:05:49.724Z,79.30
2024-05-09T02:08:20.693Z,80.46
2024-05-09T02:10:50.515Z,80.43
2024-05-09T02:13:19.414Z,80.47
2024-05-09T02:15:52.155Z,80.39
2024-05-09T02:18:20.954Z,80.84
2024-05-09T02:20:49.658Z,81.37
2024-05-09T02:23:18.379Z,81.44
2024-05-09T02:25:46.729Z,81.19
2024-05-09T02:28:15.012Z,81.59
2024-05-09T02:30:43.245Z,81.46
2024-05-09T02:33:13.392Z,81.38
2024-05-09T02:35:44.300Z,81.11
2024-05-09T02:38:13.729Z,81.02
2024-05-09T02:40:42.141Z,81.17
2024-05-09T02:43:12.929Z,81.52
2024-05-09T02:45:42.222Z,81.73
2024-05-09T02:48:13.160Z,82.03
2024-05-09T02:50:44.717Z,81.37
2024-05-09T02:53:14.786Z,81.37
2024-05-09T02:55:43.625Z,81.72
2024-05-09T02:58:12.465Z,81.43
2024-05-09T03:00:42.737Z,80.93
2024-05-09T03:03:14.388Z,81.41
2024-05-09T03:05:47.076Z,81.32
2024-05-09T03:08:15.930Z,81.39
2024-05-09T03:10:44.368Z,81.40
2024-05-09T03:13:15.499Z,81.29
2024-05-09T03:15:45.889Z,81.28
2024-05-09T03:18:15.352Z,81.37
2024-05-09T03:20:44.561Z,81.70
2024-05-09T03:23:13.501Z,81.42
2024-05-09T03:25:42.144Z,81.96
2024-05-09T03:28:11.748Z,81.77
2024-05-09T03:30:42.532Z,81.42
2024-05-09T03:33:20.233Z,81.02
2024-05-09T03:35:49.862Z,81.28
2024-05-09T03:38:19.248Z,81.16
2024-05-09T03:40:50.121Z,81.37
2024-05-09T03:43:20.106Z,81.86
2024-05-09T03:45:50.681Z,81.76
2024-05-09T03:48:19.342Z,81.30
2024-05-09T03:50:48.097Z,81.59
2024-05-09T03:53:16.805Z,82.16
2024-05-09T03:55:48.892Z,82.12
2024-05-09T03:58:19.052Z,82.25
2024-05-09T04:00:47.817Z,82.65
2024-05-09T04:03:16.859Z,82.75
2024-05-09T04:05:45.979Z,82.83
2024-05-09T04:08:15.498Z,82.63
2024-05-09T04:10:44.361Z,82.43
2024-05-09T04:13:12.757Z,82.62
2024-05-09T04:15:41.238Z,82.92
2024-05-09T04:18:09.706Z,82.63
2024-05-09T04:20:40.785Z,82.93
2024-05-09T04:23:14.711Z,82.65
2024-05-09T04:25:45.130Z,83.02
2024-05-09T04:28:14.460Z,82.61
2024-05-09T04:30:43.454Z,82.72
2024-05-09T04:33:13.800Z,82.28
2024-05-09T04:35:46.446Z,82.59
2024-05-09T04:38:15.621Z,82.57
2024-05-09T04:40:45.099Z,82.45
2024-05-09T04:43:15.938Z,82.50
2024-05-09T04:45:45.248Z,82.28
2024-05-09T04:48:13.886Z,82.75
2024-05-09T04:50:43.045Z,83.44
2024-05-09T04:53:15.987Z,83.46
2024-05-09T04:55:44.873Z,83.37
2024-05-09T04:58:13.215Z,82.85
2024-05-09T05:00:41.838Z,81.87
2024-05-09T05:03:14.425Z,81.18
2024-05-09T05:05:46.602Z,80.80
2024-05-09T05:08:17.731Z,80.60
2024-05-09T05:10:48.869Z,80.11
2024-05-09T05:13:22.751Z,80.12
2024-05-09T05:15:57.291Z,79.72
2024-05-09T05:18:28.081Z,79.86
2024-05-09T05:20:58.751Z,79.62
2024-05-09T05:23:27.044Z,79.99
2024-05-09T05:25:55.907Z,80.55
2024-05-09T05:28:24.405Z,81.04
2024-05-09T05:30:52.884Z,81.73
2024-05-09T05:33:22.540Z,81.68
2024-05-09T05:35:51.491Z,81.73
2024-05-09T05:38:23.755Z,81.93
2024-05-09T05:40:55.117Z,81.14
2024-05-09T05:43:24.088Z,81.69
2024-05-09T05:45:52.468Z,81.73
2024-05-09T05:48:21.219Z,81.83
2024-05-09T05:50:50.030Z,82.02
2024-05-09T05:53:18.817Z,81.66
2024-05-09T05:55:47.456Z,82.06
2024-05-09T05:58:15.838Z,82.01
2024-05-09T06:00:44.527Z,81.73
2024-05-09T06:03:14.281Z,81.57
2024-05-09T06:05:44.206Z,81.89
2024-05-09T06:08:13.328Z,81.26
2024-05-09T06:10:42.485Z,81.57
2024-05-09T06:13:14.368Z,81.03
2024-05-09T06:15:43.495Z,80.97
2024-05-09T06:18:14.403Z,80.81
2024-05-09T06:20:44.279Z,80.83
2024-05-09T06:23:14.359Z,80.28
2024-05-09T06:25:43.995Z,80.22
2024-05-09T06:28:12.824Z,80.42
2024-05-09T06:30:43.048Z,80.60
2024-05-09T06:33:14.191Z,81.07
2024-05-09T06:35:46.495Z,80.46
2024-05-09T06:38:15.386Z,81.08
2024-05-09T06:40:44.701Z,80.65
2024-05-09T06:43:14.590Z,80.60
2024-05-09T06:45:50.963Z,81.04
2024-05-09T06:48:20.069Z,80.83
2024-05-09T06:50:49.673Z,80.73
2024-05-09T06:53:22.041Z,80.57
2024-05-09T06:55:50.740Z,79.83
2024-05-09T06:58:19.125Z,79.72
2024-05-09T07:00:47.617Z,80.05
2024-05-09T07:03:18.420Z,79.66
2024-05-09T07:05:50.106Z,79.70
2024-05-09T07:08:19.348Z,80.26
2024-05-09T07:10:48.545Z,80.13
2024-05-09T07:13:17.286Z,80.00
2024-05-09T07:15:45.709Z,80.32
2024-05-09T07:18:17.360Z,80.29
2024-05-09T07:20:49.390Z,80.27
2024-05-09T07:23:19.563Z,80.19
2024-05-09T07:25:48.474Z,80.18
2024-05-09T07:28:21.596Z,80.06
2024-05-09T07:30:50.189Z,79.84
2024-05-09T07:33:22.165Z,79.87
2024-05-09T07:35:52.712Z,79.77
2024-05-09T07:38:22.009Z,79.67
2024-05-09T07:40:51.352Z,79.59
2024-05-09T07:43:20.046Z,80.17
2024-05-09T07:45:53.350Z,80.05
2024-05-09T07:52:39.185Z,79.59
2024-05-09T07:53:48.324Z,78.92
2024-05-09T07:56:22.552Z,78.83
2024-05-09T07:58:56.567Z,77.93
2024-05-09T08:01:26.655Z,78.08
2024-05-09T08:03:55.905Z,77.72
2024-05-09T08:06:25.446Z,77.75
2024-05-09T08:08:54.544Z,77.84
2024-05-09T08:11:23.846Z,78.27
2024-05-09T08:13:52.715Z,77.88
2024-05-09T08:16:21.431Z,78.22
2024-05-09T08:18:50.418Z,77.93
2024-05-09T08:21:19.624Z,78.46
2024-05-09T08:23:48.261Z,78.47
2024-05-09T08:26:16.723Z,77.88
2024-05-09T08:28:45.147Z,78.08
2024-05-09T08:31:13.618Z,77.79
2024-05-09T08:33:47.654Z,77.61
2024-05-09T08:36:18.037Z,77.98
2024-05-09T08:38:46.815Z,78.38
2024-05-09T08:41:18.307Z,78.21
2024-05-09T08:43:47.847Z,78.25
2024-05-09T08:46:19.269Z,78.18
2024-05-09T08:48:50.199Z,78.32
2024-05-09T08:51:19.345Z,79.00
2024-05-09T08:53:48.111Z,78.78
2024-05-09T08:56:20.563Z,79.18
2024-05-09T08:58:55.096Z,79.10
2024-05-09T09:01:24.012Z,78.93
2024-05-09T09:03:53.794Z,79.29
2024-05-09T09:06:24.533Z,79.11
2024-05-09T09:08:53.585Z,79.35
2024-05-09T09:11:22.212Z,79.23
2024-05-09T09:13:50.631Z,79.28
2024-05-09T09:16:19.410Z,79.22
2024-05-09T09:18:48.263Z,79.47
2024-05-09T09:21:17.719Z,78.72
2024-05-09T09:23:46.173Z,78.08
2024-05-09T09:26:18.421Z,77.57
2024-05-09T09:28:47.458Z,77.61
2024-05-09T09:31:19.747Z,77.32
2024-05-09T09:33:48.604Z,76.59
2024-05-09T09:36:18.685Z,76.79
2024-05-09T09:38:48.139Z,76.66
2024-05-09T09:41:19.949Z,76.77
2024-05-09T09:43:49.612Z,76.74
2024-05-09T09:46:20.205Z,76.65
2024-05-09T09:48:49.416Z,76.67
2024-05-09T09:51:20.018Z,76.86
2024-05-09T09:53:50.950Z,76.39
2024-05-09T09:56:21.394Z,76.32
2024-05-09T09:58:51.588Z,75.42
2024-05-09T10:01:21.861Z,75.22
2024-05-09T10:03:53.336Z,75.33
2024-05-09T10:06:23.906Z,75.47
2024-05-09T10:08:53.103Z,75.64
2024-05-09T10:11:22.407Z,75.33
2024-05-09T10:13:53.644Z,74.97
2024-05-09T10:16:23.338Z,74.90
2024-05-09T10:18:52.701Z,75.14
2024-05-09T10:21:22.056Z,76.12
2024-05-09T10:23:58.561Z,76.44
2024-05-09T10:26:35.589Z,76.48
2024-05-09T10:29:17.722Z,76.66
2024-05-09T10:31:48.081Z,76.08
2024-05-09T10:34:19.297Z,76.64
2024-05-09T10:36:55.490Z,76.18
2024-05-09T10:39:25.458Z,76.51
2024-05-09T10:41:53.614Z,76.39
2024-05-09T10:44:21.808Z,76.51
2024-05-09T10:46:50.701Z,77.17
2024-05-09T10:49:19.078Z,76.75
2024-05-09T10:51:48.825Z,77.28
2024-05-09T10:54:17.240Z,77.89
2024-05-09T10:56:45.434Z,78.34
2024-05-09T10:59:13.797Z,79.25
2024-05-09T11:01:45.180Z,80.18
2024-05-09T11:04:14.440Z,79.92
2024-05-09T11:06:46.143Z,81.20
2024-05-09T11:09:14.890Z,81.96
2024-05-09T11:11:43.567Z,82.15
2024-05-09T11:14:13.013Z,82.89
2024-05-09T11:16:41.521Z,82.78
2024-05-09T11:19:14.513Z,82.93
2024-05-09T11:21:43.133Z,83.07
2024-05-09T11:24:12.321Z,83.40
2024-05-09T11:26:40.584Z,83.76
2024-05-09T11:29:08.981Z,84.63
2024-05-09T11:31:47.753Z,84.03
2024-05-09T11:34:16.260Z,84.32
2024-05-09T11:36:44.583Z,84.99
2024-05-09T11:39:14.882Z,85.09
2024-05-09T11:41:43.936Z,85.25
2024-05-09T11:44:13.317Z,84.62
2024-05-09T11:46:42.508Z,84.35
2024-05-09T11:49:11.523Z,84.97
2024-05-09T11:51:39.991Z,84.53
2024-05-09T11:54:08.499Z,84.90
2024-05-09T11:56:36.734Z,85.30
2024-05-09T11:59:05.295Z,84.71
2024-05-09T12:01:33.832Z,84.87
2024-05-09T12:04:02.753Z,84.98
2024-05-09T12:06:31.337Z,85.33
2024-05-09T12:08:59.756Z,84.78
2024-05-09T12:11:28.079Z,84.62
2024-05-09T12:13:56.707Z,83.94
2024-05-09T12:16:25.486Z,83.86
2024-05-09T12:18:53.881Z,84.25
2024-05-09T12:21:22.542Z,84.45
2024-05-09T12:23:51.272Z,84.88
2024-05-09T12:26:19.955Z,84.13
2024-05-09T12:28:48.111Z,84.25
2024-05-09T12:31:16.909Z,84.09
2024-05-09T12:33:46.973Z,84.12
2024-05-09T12:36:16.786Z,84.13
2024-05-09T12:38:45.263Z,83.59
2024-05-09T12:41:13.697Z,83.16
2024-05-09T12:43:41.964Z,83.19
2024-05-09T12:46:10.159Z,82.99
2024-05-09T12:48:39.099Z,83.11
2024-05-09T12:51:07.831Z,81.92
2024-05-09T12:53:36.466Z,82.77
2024-05-09T12:58:35.816Z,82.88
2024-05-09T13:01:04.288Z,83.41
2024-05-09T13:03:33.025Z,83.15
2024-05-09T13:06:02.394Z,82.57
2024-05-09T13:08:30.720Z,83.41
2024-05-09T13:10:59.520Z,83.52
2024-05-09T13:13:29.178Z,83.42
2024-05-09T13:15:57.450Z,83.57
2024-05-09T13:18:25.768Z,83.66
2024-05-09T13:20:54.127Z,82.39
2024-05-09T13:23:22.248Z,83.36
2024-05-09T13:25:51.004Z,84.17
2024-05-09T13:28:19.348Z,84.39
2024-05-09T13:30:47.957Z,84.72
2024-05-09T13:33:16.132Z,84.47
2024-05-09T13:35:48.767Z,84.23
2024-05-09T13:38:20.330Z,83.74
2024-05-09T13:40:50.619Z,84.13
2024-05-09T13:43:22.288Z,83.50
2024-05-09T13:45:52.181Z,83.31
2024-05-09T13:48:20.725Z,83.01
2024-05-09T13:50:49.116Z,83.43
2024-05-09T13:53:17.418Z,84.67
2024-05-09T13:55:45.712Z,84.68
2024-05-09T13:58:14.072Z,83.73
2024-05-09T14:00:47.896Z,83.82
2024-05-09T14:03:19.844Z,83.17
2024-05-09T14:05:51.175Z,83.76
2024-05-09T14:08:22.329Z,81.94
2024-05-09T14:10:52.319Z,82.38
2024-05-09T14:13:20.637Z,82.78
2024-05-09T14:15:49.361Z,82.21
2024-05-09T14:18:18.154Z,80.24
2024-05-09T14:20:46.391Z,80.66
2024-05-09T14:23:15.006Z,78.94
2024-05-09T14:25:45.022Z,80.85
2024-05-09T14:28:14.489Z,78.07
2024-05-09T14:30:43.200Z,76.35
2024-05-09T14:33:12.156Z,78.32
2024-05-09T14:35:40.446Z,81.17
2024-05-09T14:38:10.060Z,80.63
2024-05-09T14:40:42.608Z,80.57
2024-05-09T14:43:15.399Z,77.84
2024-05-09T14:45:45.004Z,74.00
2024-05-09T14:48:15.409Z,74.98
2024-05-09T14:50:44.347Z,72.93
2024-05-09T14:53:13.893Z,77.31
2024-05-09T14:55:43.758Z,75.59
2024-05-09T14:58:13.646Z,78.24
2024-05-09T15:00:46.694Z,77.67
2024-05-09T15:03:19.971Z,78.68
2024-05-09T15:05:50.043Z,72.93
2024-05-09T15:08:19.784Z,73.61
2024-05-09T15:10:52.268Z,76.08
2024-05-09T15:13:21.743Z,74.33
2024-05-09T15:15:50.270Z,74.18
2024-05-09T15:18:19.081Z,74.45
2024-05-09T15:20:48.106Z,73.99
2024-05-09T15:23:16.676Z,74.02
2024-05-09T15:25:44.990Z,74.02
2024-05-09T15:28:13.657Z,74.41
2024-05-09T15:30:46.003Z,75.18
2024-05-09T15:33:15.691Z,75.27
2024-05-09T15:35:46.759Z,75.58
2024-05-09T15:38:16.940Z,75.15
2024-05-09T15:40:45.433Z,74.00
2024-05-09T15:43:13.755Z,77.33
2024-05-09T15:45:42.684Z,73.41
2024-05-09T15:48:12.255Z,73.74
2024-05-09T15:50:42.780Z,74.39
2024-05-09T15:53:13.553Z,73.75
2024-05-09T15:55:43.399Z,77.37
2024-05-09T15:58:14.081Z,76.17
2024-05-09T16:00:44.976Z,77.31
2024-05-09T16:03:15.276Z,78.13
2024-05-09T16:05:47.911Z,76.05
2024-05-09T16:08:16.750Z,74.08
2024-05-09T16:10:47.362Z,74.28
2024-05-09T16:13:17.716Z,74.15
2024-05-09T16:15:46.866Z,70.74
2024-05-09T16:18:15.834Z,73.15
2024-05-09T16:20:46.354Z,71.28
2024-05-09T16:23:16.998Z,71.80
2024-05-09T16:25:48.613Z,71.48
2024-05-09T16:28:19.816Z,72.45
2024-05-09T16:30:50.867Z,70.19
2024-05-09T16:33:23.546Z,71.09
2024-05-09T16:35:52.431Z,69.89
2024-05-09T16:38:20.764Z,73.07
2024-05-09T16:40:50.347Z,74.54
2024-05-09T16:43:19.407Z,75.71
2024-05-09T16:45:48.045Z,74.56
2024-05-09T16:48:17.263Z,73.79
2024-05-09T16:50:46.385Z,73.71
2024-05-09T16:53:14.972Z,75.79
2024-05-09T16:55:43.899Z,75.58
2024-05-09T16:58:12.767Z,75.63
2024-05-09T17:00:43.473Z,76.67
2024-05-09T17:03:15.284Z,76.58
2024-05-09T17:05:47.284Z,76.55
2024-05-09T17:08:20.255Z,75.89
2024-05-09T17:10:49.951Z,77.05
2024-05-09T17:13:19.373Z,75.53
2024-05-09T17:15:52.031Z,75.66
2024-05-09T17:18:20.908Z,76.02
2024-05-09T17:20:51.488Z,76.91
2024-05-09T17:23:19.934Z,78.47
2024-05-09T17:25:48.630Z,77.65
2024-05-09T17:28:17.536Z,77.86
2024-05-09T17:30:45.890Z,75.33
2024-05-09T17:33:14.393Z,75.66
2024-05-09T17:35:42.856Z,76.41
2024-05-09T17:38:11.589Z,76.55
2024-05-09T17:40:40.264Z,77.10
2024-05-09T17:43:10.825Z,76.61
2024-05-09T17:45:41.300Z,75.19
2024-05-09T17:48:11.932Z,74.97
2024-05-09T17:50:42.002Z,77.16
2024-05-09T17:53:10.983Z,76.73
2024-05-09T17:55:40.639Z,79.30
2024-05-09T17:58:09.794Z,76.94
2024-05-09T18:00:41.202Z,76.38
2024-05-09T18:03:12.440Z,76.01
2024-05-09T18:05:44.424Z,77.57
2024-05-09T18:08:13.902Z,80.03
2024-05-09T18:10:42.977Z,78.42
2024-05-09T18:13:13.265Z,80.57
2024-05-09T18:15:42.004Z,79.25
2024-05-09T18:18:12.977Z,80.26
2024-05-09T18:20:45.036Z,78.68
2024-05-09T18:23:17.916Z,80.82
2024-05-09T18:25:48.250Z,80.22
2024-05-09T18:28:17.622Z,78.92
2024-05-09T18:30:47.103Z,79.04
2024-05-09T18:33:16.361Z,80.70
2024-05-09T18:35:45.402Z,79.60
2024-05-09T18:38:13.740Z,79.45
2024-05-09T18:40:44.035Z,79.63
2024-05-09T18:43:14.789Z,80.11
2024-05-09T18:45:43.017Z,80.23
2024-05-09T18:48:11.977Z,80.53
2024-05-09T18:50:41.572Z,80.50
2024-05-09T18:53:12.373Z,80.29
2024-05-09T18:55:42.351Z,81.82
2024-05-09T18:58:10.934Z,81.01
2024-05-09T19:00:41.800Z,80.95
2024-05-09T19:03:14.254Z,82.25
2024-05-09T19:05:45.259Z,81.96
2024-05-09T19:08:15.773Z,81.41
2024-05-09T19:10:47.926Z,82.29
2024-05-09T19:13:16.826Z,82.24
2024-05-09T19:15:45.280Z,82.64
2024-05-09T19:18:14.451Z,83.03
2024-05-09T19:20:44.559Z,82.74
2024-05-09T19:23:13.604Z,82.30
2024-05-09T19:25:42.117Z,82.50
2024-05-09T19:28:10.564Z,82.53
2024-05-09T19:30:41.923Z,82.87
2024-05-09T19:33:13.095Z,82.81
2024-05-09T19:35:43.878Z,83.07
2024-05-09T19:38:13.573Z,82.61
2024-05-09T19:40:43.379Z,83.17
2024-05-09T19:43:12.991Z,83.43
2024-05-09T19:45:42.475Z,83.67
2024-05-09T19:48:11.508Z,84.15
2024-05-09T19:50:43.607Z,83.89
2024-05-09T19:53:14.799Z,83.52
2024-05-09T19:55:44.024Z,83.83
2024-05-09T19:58:13.237Z,84.08
2024-05-09T20:00:43.940Z,83.98
2024-05-09T20:03:15.088Z,83.71
2024-05-09T20:05:47.073Z,83.45
2024-05-09T20:08:16.518Z,83.53
2024-05-09T20:10:45.368Z,83.77
2024-05-09T20:13:14.397Z,82.72
2024-05-09T20:15:42.848Z,83.36
2024-05-09T20:18:11.215Z,84.16
2024-05-09T20:20:42.827Z,84.39
2024-05-09T20:23:14.060Z,84.53
2024-05-09T20:25:42.750Z,84.61
2024-05-09T20:28:11.876Z,84.59
2024-05-09T20:30:40.812Z,84.12
2024-05-09T20:33:10.130Z,84.41
2024-05-09T20:35:39.122Z,84.61
2024-05-09T20:38:08.026Z,84.48
2024-05-09T20:40:38.914Z,84.42
2024-05-09T20:43:12.314Z,84.16
2024-05-09T20:45:41.108Z,84.47
2024-05-09T20:48:12.706Z,84.54
2024-05-09T20:50:42.701Z,84.66
2024-05-09T20:53:14.291Z,84.19
2024-05-09T20:55:44.888Z,84.50
2024-05-09T20:58:14.539Z,84.97
2024-05-09T21:00:45.832Z,84.65
2024-05-09T21:03:17.177Z,85.18
2024-05-09T21:05:48.395Z,85.16
2024-05-09T21:08:17.751Z,84.89
2024-05-09T21:10:46.233Z,84.53
2024-05-09T21:13:14.843Z,84.49
2024-05-09T21:15:43.772Z,84.90
2024-05-09T21:18:12.383Z,83.85
2024-05-09T21:20:40.803Z,83.86
2024-05-09T21:23:09.102Z,84.30
2024-05-09T21:25:38.173Z,84.91
2024-05-09T21:28:06.963Z,84.69
2024-05-09T21:30:41.462Z,83.71
2024-05-09T21:33:13.757Z,83.97
2024-05-09T21:35:44.352Z,84.67
2024-05-09T21:38:14.597Z,84.95
2024-05-09T21:40:44.235Z,84.66
2024-05-09T21:43:12.996Z,83.92
2024-05-09T21:45:41.741Z,83.96
2024-05-09T21:48:13.247Z,84.63
2024-05-09T21:50:42.664Z,83.86
2024-05-09T21:53:12.738Z,84.18
2024-05-09T21:55:42.993Z,83.12
2024-05-09T21:58:13.347Z,83.70
2024-05-09T22:00:45.643Z,84.26
2024-05-09T22:03:14.396Z,83.69
2024-05-09T22:05:45.044Z,83.80
2024-05-09T22:08:13.848Z,84.48
2024-05-09T22:10:42.487Z,84.35
2024-05-09T22:13:11.266Z,84.30
2024-05-09T22:15:40.893Z,84.41
2024-05-09T22:18:11.154Z,84.02
2024-05-09T22:20:45.650Z,83.92
2024-05-09T22:23:18.700Z,83.67
2024-05-09T22:25:48.240Z,84.54
2024-05-09T22:28:17.644Z,85.01
2024-05-09T22:30:47.253Z,85.10
2024-05-09T22:33:16.294Z,85.13
2024-05-09T22:35:45.282Z,84.88
2024-05-09T22:38:14.161Z,85.59
2024-05-09T22:40:48.150Z,85.38
2024-05-09T22:43:24.192Z,85.49
2024-05-09T22:45:57.030Z,85.45
2024-05-09T22:48:26.461Z,85.19
2024-05-09T22:50:55.383Z,84.89
2024-05-09T22:53:25.442Z,84.57
2024-05-09T22:55:54.397Z,84.54
2024-05-09T22:58:24.030Z,84.80
2024-05-09T23:00:53.370Z,84.79
2024-05-09T23:03:22.933Z,84.69
2024-05-09T23:05:54.778Z,84.75
2024-05-09T23:08:23.549Z,84.66
2024-05-09T23:10:52.083Z,84.89
2024-05-09T23:13:20.570Z,84.60
2024-05-09T23:15:51.105Z,84.29
2024-05-09T23:18:20.301Z,84.57
2024-05-09T23:20:49.535Z,84.21
2024-05-09T23:23:18.671Z,83.99
2024-05-09T23:25:49.490Z,84.05
2024-05-09T23:28:18.951Z,84.39
2024-05-09T23:30:47.437Z,85.34
2024-05-09T23:33:16.055Z,85.01
2024-05-09T23:35:44.870Z,84.35
2024-05-09T23:38:13.625Z,84.79
2024-05-09T23:40:43.048Z,84.96
2024-05-09T23:43:14.100Z,84.96
2024-05-09T23:45:43.907Z,84.86
2024-05-09T23:48:12.733Z,84.75
2024-05-09T23:50:41.853Z,84.60
2024-05-09T23:53:10.976Z,85.11
2024-05-09T23:55:41.909Z,84.81
2024-05-09T23:58:11.338Z,84.60
